sensor_id;sensor_type;location;lat;lon;timestamp;pressure;altitude;pressure_sealevel;temperature;humidity
53514;BME280;39768;54.148;12.174;2024-03-23T00:55:49;100616.47;;;4.96;59.79
53514;BME280;39768;54.148;12.174;2024-03-23T00:59:49;100606.94;;;4.87;60.21
53514;BME280;39768;54.148;12.174;2024-03-23T01:03:50;100604.00;;;4.96;60.43
53514;BME280;39768;54.148;12.174;2024-03-23T01:07:51;100591.75;;;4.60;58.33
53514;BME280;39768;54.148;12.174;2024-03-23T01:11:51;100585.53;;;5.18;56.99
53514;BME280;39768;54.148;12.174;2024-03-23T01:15:53;100583.44;;;5.00;58.01
53514;BME280;39768;54.148;12.174;2024-03-23T01:19:54;100579.44;;;4.54;59.49
53514;BME280;39768;54.148;12.174;2024-03-23T01:23:55;100571.91;;;4.68;58.49
53514;BME280;39768;54.148;12.174;2024-03-23T01:27:56;100577.97;;;5.04;57.98
53514;BME280;39768;54.148;12.174;2024-03-23T01:31:56;100562.28;;;3.99;60.64
53514;BME280;39768;54.148;12.174;2024-03-23T01:35:57;100552.13;;;4.46;59.57
53514;BME280;39768;54.148;12.174;2024-03-23T01:39:59;100553.72;;;4.52;59.65
53514;BME280;39768;54.148;12.174;2024-03-23T01:44:04;100551.22;;;4.47;59.89
53514;BME280;39768;54.148;12.174;2024-03-23T01:48:06;100551.25;;;4.46;59.99
53514;BME280;39768;54.148;12.174;2024-03-23T01:52:07;100537.75;;;4.81;59.60
53514;BME280;39768;54.148;12.174;2024-03-23T01:56:08;100546.28;;;4.94;58.72
53514;BME280;39768;54.148;12.174;2024-03-23T02:00:09;100539.16;;;4.94;58.46
53514;BME280;39768;54.148;12.174;2024-03-23T02:04:12;100531.66;;;4.77;59.14
53514;BME280;39768;54.148;12.174;2024-03-23T02:08:13;100528.31;;;4.99;58.87
53514;BME280;39768;54.148;12.174;2024-03-23T02:12:14;100510.47;;;4.71;61.41
53514;BME280;39768;54.148;12.174;2024-03-23T02:16:15;100502.72;;;4.64;64.24
53514;BME280;39768;54.148;12.174;2024-03-23T02:20:16;100498.44;;;4.58;63.32
53514;BME280;39768;54.148;12.174;2024-03-23T02:24:17;100515.41;;;4.56;62.24
53514;BME280;39768;54.148;12.174;2024-03-23T02:28:18;100491.06;;;4.66;63.91
53514;BME280;39768;54.148;12.174;2024-03-23T02:32:19;100493.59;;;4.09;67.63
53514;BME280;39768;54.148;12.174;2024-03-23T02:36:19;100498.94;;;4.09;67.76
53514;BME280;39768;54.148;12.174;2024-03-23T02:40:25;100496.78;;;4.23;66.69
53514;BME280;39768;54.148;12.174;2024-03-23T02:44:26;100485.84;;;4.01;68.08
53514;BME280;39768;54.148;12.174;2024-03-23T02:48:27;100492.19;;;3.96;69.23
53514;BME280;39768;54.148;12.174;2024-03-23T02:52:28;100473.75;;;4.21;69.31
53514;BME280;39768;54.148;12.174;2024-03-23T02:56:32;100467.59;;;3.54;70.82
53514;BME280;39768;54.148;12.174;2024-03-23T03:00:33;100467.94;;;3.74;68.45
53514;BME280;39768;54.148;12.174;2024-03-23T03:04:33;100470.72;;;3.69;69.31
53514;BME280;39768;54.148;12.174;2024-03-23T03:08:34;100457.16;;;4.10;67.98
53514;BME280;39768;54.148;12.174;2024-03-23T03:12:35;100457.69;;;4.53;63.99
53514;BME280;39768;54.148;12.174;2024-03-23T03:16:36;100446.09;;;4.82;61.36
53514;BME280;39768;54.148;12.174;2024-03-23T03:20:38;100446.63;;;4.65;61.70
53514;BME280;39768;54.148;12.174;2024-03-23T03:24:40;100429.47;;;4.46;62.03
53514;BME280;39768;54.148;12.174;2024-03-23T03:28:40;100431.06;;;4.22;63.38
53514;BME280;39768;54.148;12.174;2024-03-23T03:32:41;100430.19;;;4.22;63.40
53514;BME280;39768;54.148;12.174;2024-03-23T03:36:42;100431.34;;;4.98;59.56
53514;BME280;39768;54.148;12.174;2024-03-23T03:40:42;100431.09;;;4.80;59.88
53514;BME280;39768;54.148;12.174;2024-03-23T03:44:43;100432.34;;;4.38;61.70
53514;BME280;39768;54.148;12.174;2024-03-23T03:48:44;100427.03;;;4.66;61.78
53514;BME280;39768;54.148;12.174;2024-03-23T03:52:47;100423.56;;;4.64;60.73
53514;BME280;39768;54.148;12.174;2024-03-23T03:56:47;100413.53;;;4.15;61.40
53514;BME280;39768;54.148;12.174;2024-03-23T04:00:48;100410.06;;;4.10;62.26
53514;BME280;39768;54.148;12.174;2024-03-23T04:04:49;100408.97;;;4.19;61.97
53514;BME280;39768;54.148;12.174;2024-03-23T04:08:49;100411.44;;;4.25;61.85
53514;BME280;39768;54.148;12.174;2024-03-23T04:12:50;100388.66;;;4.15;63.70
53514;BME280;39768;54.148;12.174;2024-03-23T04:16:51;100384.13;;;4.46;60.90
53514;BME280;39768;54.148;12.174;2024-03-23T04:20:52;100378.00;;;4.15;62.15
53514;BME280;39768;54.148;12.174;2024-03-23T04:24:54;100377.56;;;4.28;60.97
53514;BME280;39768;54.148;12.174;2024-03-23T04:28:55;100367.44;;;4.39;59.92
53514;BME280;39768;54.148;12.174;2024-03-23T04:32:56;100367.97;;;4.23;59.19
53514;BME280;39768;54.148;12.174;2024-03-23T04:36:58;100373.63;;;4.11;58.97
53514;BME280;39768;54.148;12.174;2024-03-23T04:40:59;100373.97;;;4.00;59.24
53514;BME280;39768;54.148;12.174;2024-03-23T04:45:00;100362.81;;;3.87;59.43
53514;BME280;39768;54.148;12.174;2024-03-23T04:49:01;100367.38;;;3.82;59.77
53514;BME280;39768;54.148;12.174;2024-03-23T04:53:05;100363.38;;;3.97;59.11
53514;BME280;39768;54.148;12.174;2024-03-23T04:57:06;100357.19;;;3.96;59.58
53514;BME280;39768;54.148;12.174;2024-03-23T05:01:07;100357.75;;;3.77;59.98
53514;BME280;39768;54.148;12.174;2024-03-23T05:05:08;100353.94;;;3.87;60.24
53514;BME280;39768;54.148;12.174;2024-03-23T05:09:08;100361.88;;;3.88;60.35
53514;BME280;39768;54.148;12.174;2024-03-23T05:13:12;100360.13;;;3.87;60.14
53514;BME280;39768;54.148;12.174;2024-03-23T05:17:13;100355.59;;;3.91;60.17
53514;BME280;39768;54.148;12.174;2024-03-23T05:21:14;100354.94;;;3.52;61.64
53514;BME280;39768;54.148;12.174;2024-03-23T05:25:14;100345.75;;;3.62;63.25
53514;BME280;39768;54.148;12.174;2024-03-23T05:29:16;100332.91;;;3.14;64.58
53514;BME280;39768;54.148;12.174;2024-03-23T05:33:19;100341.81;;;2.78;67.22
53514;BME280;39768;54.148;12.174;2024-03-23T05:37:20;100345.44;;;2.37;69.78
53514;BME280;39768;54.148;12.174;2024-03-23T05:41:21;100349.66;;;2.45;73.13
53514;BME280;39768;54.148;12.174;2024-03-23T05:45:23;100351.69;;;2.34;75.12
53514;BME280;39768;54.148;12.174;2024-03-23T05:49:23;100358.28;;;2.56;73.90
53514;BME280;39768;54.148;12.174;2024-03-23T05:53:25;100352.38;;;3.47;69.31
53514;BME280;39768;54.148;12.174;2024-03-23T05:57:26;100340.06;;;3.45;67.87
53514;BME280;39768;54.148;12.174;2024-03-23T06:01:27;100334.53;;;3.51;68.68
53514;BME280;39768;54.148;12.174;2024-03-23T06:05:29;100331.25;;;3.43;69.13
53514;BME280;39768;54.148;12.174;2024-03-23T06:09:30;100328.38;;;3.49;68.85
53514;BME280;39768;54.148;12.174;2024-03-23T06:13:32;100334.44;;;3.23;69.85
53514;BME280;39768;54.148;12.174;2024-03-23T06:17:34;100337.50;;;3.40;70.02
53514;BME280;39768;54.148;12.174;2024-03-23T06:21:35;100342.75;;;3.11;72.30
53514;BME280;39768;54.148;12.174;2024-03-23T06:25:36;100347.25;;;3.41;70.37
53514;BME280;39768;54.148;12.174;2024-03-23T06:29:36;100341.00;;;3.10;74.07
53514;BME280;39768;54.148;12.174;2024-03-23T06:33:37;100334.38;;;3.57;69.46
53514;BME280;39768;54.148;12.174;2024-03-23T06:37:38;100339.28;;;4.01;67.11
53514;BME280;39768;54.148;12.174;2024-03-23T06:41:53;100336.69;;;4.29;67.35
53514;BME280;39768;54.148;12.174;2024-03-23T06:45:55;100329.50;;;4.59;64.87
53514;BME280;39768;54.148;12.174;2024-03-23T06:49:56;100327.88;;;4.54;64.96
53514;BME280;39768;54.148;12.174;2024-03-23T06:53:57;100319.44;;;4.94;63.08
53514;BME280;39768;54.148;12.174;2024-03-23T06:57:57;100303.13;;;4.76;62.45
53514;BME280;39768;54.148;12.174;2024-03-23T07:01:58;100298.66;;;4.23;63.65
53514;BME280;39768;54.148;12.174;2024-03-23T07:05:59;100309.38;;;5.02;62.38
53514;BME280;39768;54.148;12.174;2024-03-23T07:10:00;100285.72;;;4.91;61.91
53514;BME280;39768;54.148;12.174;2024-03-23T07:14:00;100287.03;;;4.80;61.53
53514;BME280;39768;54.148;12.174;2024-03-23T07:18:01;100296.97;;;4.74;64.43
53514;BME280;39768;54.148;12.174;2024-03-23T07:22:02;100300.00;;;5.15;62.35
53514;BME280;39768;54.148;12.174;2024-03-23T07:26:03;100311.78;;;5.09;61.01
53514;BME280;39768;54.148;12.174;2024-03-23T07:30:06;100308.16;;;5.10;59.92
53514;BME280;39768;54.148;12.174;2024-03-23T07:34:07;100308.22;;;5.34;58.88
53514;BME280;39768;54.148;12.174;2024-03-23T07:38:08;100300.53;;;5.51;58.36
53514;BME280;39768;54.148;12.174;2024-03-23T07:42:09;100298.41;;;5.59;58.18
53514;BME280;39768;54.148;12.174;2024-03-23T07:46:10;100300.53;;;5.51;58.56
53514;BME280;39768;54.148;12.174;2024-03-23T07:50:10;100294.91;;;6.04;57.84
53514;BME280;39768;54.148;12.174;2024-03-23T07:54:12;100292.78;;;6.13;56.85
53514;BME280;39768;54.148;12.174;2024-03-23T07:58:12;100282.75;;;5.73;56.31
53514;BME280;39768;54.148;12.174;2024-03-23T08:02:13;100287.34;;;6.15;55.63
53514;BME280;39768;54.148;12.174;2024-03-23T08:06:15;100285.84;;;6.30;56.68
53514;BME280;39768;54.148;12.174;2024-03-23T08:10:16;100284.56;;;6.83;52.72
53514;BME280;39768;54.148;12.174;2024-03-23T08:14:18;100281.97;;;5.70;55.84
53514;BME280;39768;54.148;12.174;2024-03-23T08:18:20;100276.09;;;6.50;54.86
53514;BME280;39768;54.148;12.174;2024-03-23T08:22:21;100277.41;;;6.62;53.07
53514;BME280;39768;54.148;12.174;2024-03-23T08:26:22;100268.56;;;6.82;52.10
53514;BME280;39768;54.148;12.174;2024-03-23T08:30:23;100263.19;;;6.40;52.49
53514;BME280;39768;54.148;12.174;2024-03-23T08:34:24;100255.03;;;5.76;52.96
53514;BME280;39768;54.148;12.174;2024-03-23T08:38:25;100260.00;;;5.38;54.15
53514;BME280;39768;54.148;12.174;2024-03-23T08:42:26;100264.38;;;5.39;55.33
53514;BME280;39768;54.148;12.174;2024-03-23T08:46:27;100258.03;;;5.90;53.90
53514;BME280;39768;54.148;12.174;2024-03-23T08:50:28;100254.91;;;5.56;52.11
53514;BME280;39768;54.148;12.174;2024-03-23T08:54:28;100242.59;;;6.42;51.87
53514;BME280;39768;54.148;12.174;2024-03-23T08:58:32;100249.28;;;5.63;53.40
53514;BME280;39768;54.148;12.174;2024-03-23T09:02:35;100241.28;;;5.63;53.15
53514;BME280;39768;54.148;12.174;2024-03-23T09:06:36;100250.50;;;6.23;51.65
53514;BME280;39768;54.148;12.174;2024-03-23T09:10:39;100237.53;;;6.98;49.52
53514;BME280;39768;54.148;12.174;2024-03-23T09:14:39;100247.31;;;6.13;49.29
53514;BME280;39768;54.148;12.174;2024-03-23T09:18:40;100236.09;;;6.90;49.87
53514;BME280;39768;54.148;12.174;2024-03-23T09:22:41;100241.97;;;6.57;49.35
53514;BME280;39768;54.148;12.174;2024-03-23T09:26:42;100236.91;;;6.92;48.80
53514;BME280;39768;54.148;12.174;2024-03-23T09:30:42;100236.34;;;7.04;47.94
53514;BME280;39768;54.148;12.174;2024-03-23T09:34:43;100233.81;;;6.60;47.43
53514;BME280;39768;54.148;12.174;2024-03-23T09:38:44;100226.13;;;7.13;47.64
53514;BME280;39768;54.148;12.174;2024-03-23T09:42:50;100233.09;;;6.97;46.25
53514;BME280;39768;54.148;12.174;2024-03-23T09:46:50;100219.38;;;6.84;46.68
53514;BME280;39768;54.148;12.174;2024-03-23T09:50:51;100211.88;;;7.13;46.20
53514;BME280;39768;54.148;12.174;2024-03-23T09:54:52;100209.84;;;7.18;45.54
53514;BME280;39768;54.148;12.174;2024-03-23T09:59:00;100211.09;;;7.69;44.01
53514;BME280;39768;54.148;12.174;2024-03-23T10:03:01;100208.94;;;7.77;44.94
53514;BME280;39768;54.148;12.174;2024-03-23T10:07:15;100202.72;;;7.93;44.32
53514;BME280;39768;54.148;12.174;2024-03-23T10:11:18;100206.47;;;8.08;43.12
53514;BME280;39768;54.148;12.174;2024-03-23T10:15:21;100201.03;;;7.16;43.74
53514;BME280;39768;54.148;12.174;2024-03-23T10:19:31;100207.47;;;7.88;42.59
53514;BME280;39768;54.148;12.174;2024-03-23T10:23:36;100200.91;;;7.94;42.84
53514;BME280;39768;54.148;12.174;2024-03-23T10:27:37;100207.03;;;8.34;41.23
53514;BME280;39768;54.148;12.174;2024-03-23T10:31:38;100205.75;;;8.41;39.96
53514;BME280;39768;54.148;12.174;2024-03-23T10:35:42;100210.28;;;7.85;38.85
53514;BME280;39768;54.148;12.174;2024-03-23T10:39:43;100211.13;;;7.30;39.05
53514;BME280;39768;54.148;12.174;2024-03-23T10:43:48;100206.94;;;7.43;40.82
53514;BME280;39768;54.148;12.174;2024-03-23T10:47:49;100208.06;;;6.98;41.02
53514;BME280;39768;54.148;12.174;2024-03-23T10:51:50;100203.03;;;6.91;41.03
53514;BME280;39768;54.148;12.174;2024-03-23T10:55:52;100202.34;;;7.06;39.49
53514;BME280;39768;54.148;12.174;2024-03-23T10:59:53;100189.16;;;7.21;40.89
53514;BME280;39768;54.148;12.174;2024-03-23T11:03:54;100180.81;;;7.09;41.09
53514;BME280;39768;54.148;12.174;2024-03-23T11:07:55;100180.91;;;7.26;40.75
53514;BME280;39768;54.148;12.174;2024-03-23T11:11:56;100163.91;;;7.27;41.48
53514;BME280;39768;54.148;12.174;2024-03-23T11:16:12;100173.25;;;7.56;40.29
53514;BME280;39768;54.148;12.174;2024-03-23T11:20:13;100175.06;;;7.37;39.16
53514;BME280;39768;54.148;12.174;2024-03-23T11:24:14;100160.06;;;6.94;40.46
53514;BME280;39768;54.148;12.174;2024-03-23T11:28:16;100167.28;;;7.70;39.04
53514;BME280;39768;54.148;12.174;2024-03-23T11:32:17;100176.44;;;8.02;38.36
53514;BME280;39768;54.148;12.174;2024-03-23T11:36:20;100169.69;;;7.93;38.27
53514;BME280;39768;54.148;12.174;2024-03-23T11:40:21;100164.88;;;8.18;37.96
53514;BME280;39768;54.148;12.174;2024-03-23T11:44:25;100167.75;;;7.78;37.92
53514;BME280;39768;54.148;12.174;2024-03-23T11:48:26;100154.75;;;8.06;38.49
53514;BME280;39768;54.148;12.174;2024-03-23T11:52:27;100162.31;;;7.79;36.76
53514;BME280;39768;54.148;12.174;2024-03-23T11:56:28;100162.91;;;5.39;44.74
53514;BME280;39768;54.148;12.174;2024-03-23T12:00:29;100164.13;;;4.34;47.63
53514;BME280;39768;54.148;12.174;2024-03-23T12:04:30;100176.69;;;4.03;49.39
53514;BME280;39768;54.148;12.174;2024-03-23T12:08:36;100169.13;;;3.91;49.98
53514;BME280;39768;54.148;12.174;2024-03-23T12:12:38;100159.25;;;4.47;50.08
53514;BME280;39768;54.148;12.174;2024-03-23T12:16:39;100148.03;;;4.10;49.39
53514;BME280;39768;54.148;12.174;2024-03-23T12:20:40;100146.34;;;4.35;47.52
53514;BME280;39768;54.148;12.174;2024-03-23T12:24:41;100163.56;;;4.99;45.20
53514;BME280;39768;54.148;12.174;2024-03-23T12:28:46;100173.81;;;5.35;44.66
53514;BME280;39768;54.148;12.174;2024-03-23T12:32:46;100171.09;;;5.81;42.77
53514;BME280;39768;54.148;12.174;2024-03-23T12:36:48;100175.44;;;6.48;44.47
53514;BME280;39768;54.148;12.174;2024-03-23T12:40:49;100164.69;;;6.07;47.82
53514;BME280;39768;54.148;12.174;2024-03-23T12:44:50;100180.63;;;6.31;46.28
53514;BME280;39768;54.148;12.174;2024-03-23T12:48:51;100181.16;;;5.75;46.48
53514;BME280;39768;54.148;12.174;2024-03-23T12:52:52;100168.72;;;5.52;46.41
53514;BME280;39768;54.148;12.174;2024-03-23T12:56:53;100150.44;;;5.85;45.34
53514;BME280;39768;54.148;12.174;2024-03-23T13:00:54;100157.50;;;6.30;47.84
53514;BME280;39768;54.148;12.174;2024-03-23T13:04:55;100165.38;;;6.55;47.00
53514;BME280;39768;54.148;12.174;2024-03-23T13:08:56;100172.34;;;5.95;45.18
53514;BME280;39768;54.148;12.174;2024-03-23T13:12:57;100162.88;;;6.50;44.32
53514;BME280;39768;54.148;12.174;2024-03-23T13:16:58;100161.09;;;6.91;43.29
53514;BME280;39768;54.148;12.174;2024-03-23T13:20:59;100161.59;;;6.38;45.06
53514;BME280;39768;54.148;12.174;2024-03-23T13:25:00;100154.53;;;6.15;44.71
53514;BME280;39768;54.148;12.174;2024-03-23T13:29:02;100159.00;;;6.15;45.39
53514;BME280;39768;54.148;12.174;2024-03-23T13:33:03;100176.84;;;5.71;47.33
53514;BME280;39768;54.148;12.174;2024-03-23T13:37:03;100187.06;;;4.90;47.25
53514;BME280;39768;54.148;12.174;2024-03-23T13:41:04;100162.13;;;6.26;47.10
53514;BME280;39768;54.148;12.174;2024-03-23T13:45:07;100165.63;;;6.89;45.20
53514;BME280;39768;54.148;12.174;2024-03-23T13:49:30;100169.34;;;7.05;44.04
53514;BME280;39768;54.148;12.174;2024-03-23T13:53:32;100146.19;;;6.85;45.37
53514;BME280;39768;54.148;12.174;2024-03-23T13:57:33;100149.81;;;8.33;42.01
53514;BME280;39768;54.148;12.174;2024-03-23T14:01:34;100158.06;;;8.11;41.00
53514;BME280;39768;54.148;12.174;2024-03-23T14:05:36;100156.41;;;7.73;40.58
53514;BME280;39768;54.148;12.174;2024-03-23T14:09:38;100148.03;;;7.22;41.74
53514;BME280;39768;54.148;12.174;2024-03-23T14:13:39;100150.38;;;7.30;40.11
53514;BME280;39768;54.148;12.174;2024-03-23T14:17:41;100143.84;;;7.54;40.15
53514;BME280;39768;54.148;12.174;2024-03-23T14:21:42;100157.75;;;7.25;40.36
53514;BME280;39768;54.148;12.174;2024-03-23T14:25:42;100150.72;;;7.22;40.61
53514;BME280;39768;54.148;12.174;2024-03-23T14:29:45;100158.28;;;6.53;41.59
53514;BME280;39768;54.148;12.174;2024-03-23T14:33:47;100160.38;;;7.64;39.84
53514;BME280;39768;54.148;12.174;2024-03-23T14:37:47;100157.28;;;6.76;40.60
53514;BME280;39768;54.148;12.174;2024-03-23T14:41:50;100156.97;;;7.42;39.69
53514;BME280;39768;54.148;12.174;2024-03-23T14:46:13;100161.63;;;7.76;39.18
53514;BME280;39768;54.148;12.174;2024-03-23T14:50:15;100152.09;;;6.31;40.10
53514;BME280;39768;54.148;12.174;2024-03-23T14:54:16;100189.47;;;5.21;45.39
53514;BME280;39768;54.148;12.174;2024-03-23T14:58:17;100180.34;;;4.00;49.27
53514;BME280;39768;54.148;12.174;2024-03-23T15:02:18;100171.84;;;4.42;51.05
53514;BME280;39768;54.148;12.174;2024-03-23T15:06:19;100159.34;;;4.69;51.64
53514;BME280;39768;54.148;12.174;2024-03-23T15:10:19;100150.63;;;5.35;51.31
53514;BME280;39768;54.148;12.174;2024-03-23T15:14:20;100157.53;;;5.64;48.80
53514;BME280;39768;54.148;12.174;2024-03-23T15:18:21;100153.38;;;6.01;47.61
53514;BME280;39768;54.148;12.174;2024-03-23T15:22:29;100151.75;;;5.75;45.57
53514;BME280;39768;54.148;12.174;2024-03-23T15:26:30;100156.19;;;5.76;45.79
53514;BME280;39768;54.148;12.174;2024-03-23T15:30:30;100147.72;;;6.08;45.45
53514;BME280;39768;54.148;12.174;2024-03-23T15:34:31;100157.78;;;6.44;43.35
53514;BME280;39768;54.148;12.174;2024-03-23T15:38:32;100149.78;;;6.84;42.38
53514;BME280;39768;54.148;12.174;2024-03-23T15:42:33;100159.22;;;6.31;42.99
53514;BME280;39768;54.148;12.174;2024-03-23T15:46:34;100154.31;;;6.42;42.67
53514;BME280;39768;54.148;12.174;2024-03-23T15:50:35;100163.94;;;7.07;41.94
53514;BME280;39768;54.148;12.174;2024-03-23T15:54:35;100156.28;;;6.99;42.62
53514;BME280;39768;54.148;12.174;2024-03-23T15:58:37;100152.53;;;6.42;41.55
53514;BME280;39768;54.148;12.174;2024-03-23T16:02:38;100151.50;;;6.25;41.92
53514;BME280;39768;54.148;12.174;2024-03-23T16:06:39;100148.00;;;6.23;42.78
53514;BME280;39768;54.148;12.174;2024-03-23T16:10:42;100149.50;;;6.50;42.76
53514;BME280;39768;54.148;12.174;2024-03-23T16:14:42;100150.50;;;6.47;41.29
53514;BME280;39768;54.148;12.174;2024-03-23T16:18:43;100154.75;;;6.31;41.97
53514;BME280;39768;54.148;12.174;2024-03-23T16:22:44;100156.06;;;5.79;42.26
53514;BME280;39768;54.148;12.174;2024-03-23T16:26:45;100154.69;;;6.33;41.81
53514;BME280;39768;54.148;12.174;2024-03-23T16:30:53;100154.28;;;6.22;41.85
53514;BME280;39768;54.148;12.174;2024-03-23T16:34:54;100150.38;;;5.87;43.46
53514;BME280;39768;54.148;12.174;2024-03-23T16:38:55;100155.28;;;6.61;41.64
53514;BME280;39768;54.148;12.174;2024-03-23T16:42:55;100145.50;;;5.76;43.41
53514;BME280;39768;54.148;12.174;2024-03-23T16:46:56;100152.88;;;5.24;43.96
53514;BME280;39768;54.148;12.174;2024-03-23T16:50:59;100152.88;;;4.99;44.40
53514;BME280;39768;54.148;12.174;2024-03-23T16:55:01;100145.69;;;5.01;46.26
53514;BME280;39768;54.148;12.174;2024-03-23T16:59:02;100132.34;;;4.53;50.12
53514;BME280;39768;54.148;12.174;2024-03-23T17:03:03;100128.00;;;4.75;49.86
53514;BME280;39768;54.148;12.174;2024-03-23T17:07:04;100127.03;;;4.78;51.09
53514;BME280;39768;54.148;12.174;2024-03-23T17:11:05;100121.91;;;5.19;48.96
53514;BME280;39768;54.148;12.174;2024-03-23T17:15:06;100126.00;;;4.81;50.99
53514;BME280;39768;54.148;12.174;2024-03-23T17:19:07;100126.56;;;4.90;49.80
53514;BME280;39768;54.148;12.174;2024-03-23T17:23:10;100125.38;;;4.74;50.48
53514;BME280;39768;54.148;12.174;2024-03-23T17:27:11;100131.28;;;4.59;49.08
53514;BME280;39768;54.148;12.174;2024-03-23T17:31:19;100132.44;;;3.99;46.48
53514;BME280;39768;54.148;12.174;2024-03-23T17:35:26;100136.16;;;4.46;45.06
53514;BME280;39768;54.148;12.174;2024-03-23T17:39:30;100140.66;;;4.19;44.72
53514;BME280;39768;54.148;12.174;2024-03-23T17:43:32;100145.81;;;4.24;44.67
53514;BME280;39768;54.148;12.174;2024-03-23T17:47:40;100143.34;;;4.44;45.59
53514;BME280;39768;54.148;12.174;2024-03-23T17:51:42;100143.19;;;3.96;45.81
53514;BME280;39768;54.148;12.174;2024-03-23T17:55:44;100136.75;;;4.29;46.41
53514;BME280;39768;54.148;12.174;2024-03-23T17:59:45;100129.69;;;4.53;45.71
53514;BME280;39768;54.148;12.174;2024-03-23T18:03:47;100126.81;;;4.34;46.27
53514;BME280;39768;54.148;12.174;2024-03-23T18:07:50;100122.25;;;3.57;48.43
53514;BME280;39768;54.148;12.174;2024-03-23T18:11:51;100123.50;;;3.74;49.27
53514;BME280;39768;54.148;12.174;2024-03-23T18:15:56;100122.63;;;3.73;48.86
53514;BME280;39768;54.148;12.174;2024-03-23T18:19:57;100108.69;;;3.65;50.14
53514;BME280;39768;54.148;12.174;2024-03-23T18:23:57;100115.88;;;3.89;49.21
53514;BME280;39768;54.148;12.174;2024-03-23T18:27:58;100118.03;;;4.04;49.03
53514;BME280;39768;54.148;12.174;2024-03-23T18:31:59;100116.25;;;3.77;49.09
53514;BME280;39768;54.148;12.174;2024-03-23T18:36:00;100120.91;;;3.98;48.41
53514;BME280;39768;54.148;12.174;2024-03-23T18:40:02;100121.41;;;3.83;48.19
53514;BME280;39768;54.148;12.174;2024-03-23T18:44:03;100121.88;;;3.42;49.07
53514;BME280;39768;54.148;12.174;2024-03-23T18:48:04;100118.91;;;3.51;48.22
53514;BME280;39768;54.148;12.174;2024-03-23T18:52:05;100125.47;;;3.67;46.90
53514;BME280;39768;54.148;12.174;2024-03-23T18:56:06;100127.97;;;3.73;47.05
53514;BME280;39768;54.148;12.174;2024-03-23T19:00:10;100133.16;;;4.30;46.00
53514;BME280;39768;54.148;12.174;2024-03-23T19:04:11;100124.94;;;3.84;46.63
53514;BME280;39768;54.148;12.174;2024-03-23T19:08:12;100122.31;;;3.56;47.03
53514;BME280;39768;54.148;12.174;2024-03-23T19:12:12;100126.28;;;3.97;46.53
53514;BME280;39768;54.148;12.174;2024-03-23T19:16:13;100128.00;;;3.71;46.89
53514;BME280;39768;54.148;12.174;2024-03-23T19:20:15;100126.13;;;3.75;47.74
53514;BME280;39768;54.148;12.174;2024-03-23T19:24:16;100116.72;;;3.06;49.88
53514;BME280;39768;54.148;12.174;2024-03-23T19:28:17;100105.19;;;2.76;51.74
53514;BME280;39768;54.148;12.174;2024-03-23T19:32:17;100101.09;;;2.95;51.91
53514;BME280;39768;54.148;12.174;2024-03-23T19:36:18;100109.81;;;2.70;52.70
53514;BME280;39768;54.148;12.174;2024-03-23T19:40:21;100100.97;;;2.37;54.68
53514;BME280;39768;54.148;12.174;2024-03-23T19:44:22;100095.63;;;2.38;55.17
53514;BME280;39768;54.148;12.174;2024-03-23T19:48:22;100101.19;;;2.92;54.08
53514;BME280;39768;54.148;12.174;2024-03-23T19:52:23;100099.41;;;2.60;53.50
53514;BME280;39768;54.148;12.174;2024-03-23T19:56:24;100109.53;;;2.80;53.37
53514;BME280;39768;54.148;12.174;2024-03-23T20:00:25;100102.03;;;2.29;55.22
53514;BME280;39768;54.148;12.174;2024-03-23T20:04:26;100106.38;;;2.00;56.54
53514;BME280;39768;54.148;12.174;2024-03-23T20:08:26;100103.06;;;1.91;57.95
53514;BME280;39768;54.148;12.174;2024-03-23T20:12:27;100098.06;;;1.79;58.83
53514;BME280;39768;54.148;12.174;2024-03-23T20:16:28;100092.63;;;2.18;58.22
53514;BME280;39768;54.148;12.174;2024-03-23T20:20:29;100092.78;;;1.78;59.21
53514;BME280;39768;54.148;12.174;2024-03-23T20:24:30;100102.28;;;2.20;58.20
53514;BME280;39768;54.148;12.174;2024-03-23T20:28:32;100088.31;;;1.80;58.70
53514;BME280;39768;54.148;12.174;2024-03-23T20:32:32;100085.56;;;2.49;57.03
53514;BME280;39768;54.148;12.174;2024-03-23T20:36:33;100085.09;;;2.34;56.59
53514;BME280;39768;54.148;12.174;2024-03-23T20:40:34;100086.56;;;1.79;57.05
53514;BME280;39768;54.148;12.174;2024-03-23T20:44:35;100092.34;;;2.59;55.35
53514;BME280;39768;54.148;12.174;2024-03-23T20:48:35;100087.88;;;2.29;57.05
53514;BME280;39768;54.148;12.174;2024-03-23T20:52:41;100085.81;;;2.40;55.85
53514;BME280;39768;54.148;12.174;2024-03-23T20:56:41;100079.72;;;2.03;57.31
53514;BME280;39768;54.148;12.174;2024-03-23T21:00:42;100084.22;;;2.33;56.89
53514;BME280;39768;54.148;12.174;2024-03-23T21:04:43;100079.88;;;2.30;56.41
53514;BME280;39768;54.148;12.174;2024-03-23T21:08:44;100080.78;;;1.97;57.62
53514;BME280;39768;54.148;12.174;2024-03-23T21:12:46;100069.63;;;2.17;58.31
53514;BME280;39768;54.148;12.174;2024-03-23T21:16:47;100071.56;;;1.76;57.53
53514;BME280;39768;54.148;12.174;2024-03-23T21:20:53;100070.81;;;2.05;58.45
53514;BME280;39768;54.148;12.174;2024-03-23T21:24:54;100066.09;;;2.16;58.79
53514;BME280;39768;54.148;12.174;2024-03-23T21:28:55;100063.72;;;1.72;61.28
53514;BME280;39768;54.148;12.174;2024-03-23T21:32:56;100060.63;;;1.88;59.86
53514;BME280;39768;54.148;12.174;2024-03-23T21:36:57;100055.91;;;1.67;61.11
53514;BME280;39768;54.148;12.174;2024-03-23T21:40:59;100067.53;;;1.62;60.49
53514;BME280;39768;54.148;12.174;2024-03-23T21:45:00;100063.94;;;1.64;59.67
53514;BME280;39768;54.148;12.174;2024-03-23T21:49:01;100061.19;;;2.01;59.06
53514;BME280;39768;54.148;12.174;2024-03-23T21:53:02;100051.84;;;1.52;62.19
53514;BME280;39768;54.148;12.174;2024-03-23T21:57:05;100042.63;;;1.67;62.16